EFMA

Mariehamn Airport

Finland
METAR EFMA 251850Z 24007KT 200V280 CAVOK 10/02 Q1020
Observed Flight Rules
Sep-25 @ 18:50 UTC (13 minutes ago) Visual Flight Rules
Wind Visibility Clouds
240° at 7 knots 10,000+ meters
  • Clear skies
Temperatures Readings
Current 10°C / 50°F
Dewpoint 2°C / 36°F
Humidity 58%
Altimeter 30.12" Hg
Pressure 1020 hPa
Elevation 6
METAR EFMA 251850Z 24007KT 200V280 CAVOK 10/02 Q1020
Observed Flight Rules
Sep-25 @ 18:50 UTC
(13 minutes ago)
VFR
Wind Visibility
240° at 7 knots 10,000+ meters
Clouds
  • Clear skies
Temperature Dewpoint
10°C / 50°F 2°C / 36°F
Humidity Altimeter Pressure
58% 30.12" Hg 1020 hPa